createdAt,value
2023-05-08T00:00:09.312Z,10.00
2023-05-08T00:02:37.748Z,10.00
2023-05-08T00:05:07.862Z,10.00
2023-05-08T00:07:37.856Z,10.00
2023-05-08T00:10:10.100Z,10.00
2023-05-08T00:12:38.990Z,10.00
2023-05-08T00:15:08.482Z,10.00
2023-05-08T00:17:36.955Z,10.00
2023-05-08T00:20:05.703Z,10.10
2023-05-08T00:22:34.056Z,10.10
2023-05-08T00:25:03.310Z,10.20
2023-05-08T00:27:33.534Z,10.20
2023-05-08T00:30:02.140Z,10.30
2023-05-08T00:32:30.524Z,10.30
2023-05-08T00:34:58.949Z,10.40
2023-05-08T00:37:27.319Z,10.40
2023-05-08T00:39:55.763Z,10.50
2023-05-08T00:42:24.359Z,10.60
2023-05-08T00:44:54.143Z,10.60
2023-05-08T00:47:23.921Z,10.60
2023-05-08T00:49:52.420Z,10.70
2023-05-08T00:52:21.781Z,10.70
2023-05-08T00:54:51.169Z,10.80
2023-05-08T00:57:20.589Z,10.80
2023-05-08T00:59:50.338Z,10.80
2023-05-08T01:02:21.314Z,10.80
2023-05-08T01:04:50.356Z,10.90
2023-05-08T01:07:19.963Z,10.90
2023-05-08T01:09:48.375Z,10.90
2023-05-08T01:12:24.855Z,10.90
2023-05-08T01:15:05.160Z,10.90
2023-05-08T01:17:44.413Z,10.90
2023-05-08T01:20:27.649Z,10.90
2023-05-08T01:23:22.066Z,10.90
2023-05-08T01:26:29.174Z,10.90
2023-05-08T01:29:48.203Z,10.90
2023-05-08T01:32:21.651Z,10.90
2023-05-08T01:35:01.875Z,10.80
2023-05-08T01:37:36.856Z,10.80
2023-05-08T01:40:14.579Z,10.80
2023-05-08T01:42:50.699Z,10.80
2023-05-08T01:45:26.805Z,10.80
2023-05-08T01:48:05.905Z,10.80
2023-05-08T01:50:39.787Z,10.70
2023-05-08T01:53:14.823Z,10.70
2023-05-08T01:55:44.935Z,10.70
2023-05-08T01:58:14.883Z,10.70
2023-05-08T02:00:45.211Z,10.70
2023-05-08T02:03:17.888Z,10.60
2023-05-08T02:05:48.125Z,10.60
2023-05-08T02:08:16.923Z,10.60
2023-05-08T02:10:47.540Z,10.60
2023-05-08T02:13:19.296Z,10.60
2023-05-08T02:15:50.285Z,10.60
2023-05-08T02:18:22.952Z,10.60
2023-05-08T02:20:53.043Z,10.60
2023-05-08T02:23:23.687Z,10.60
2023-05-08T02:25:53.005Z,10.60
2023-05-08T02:28:23.805Z,10.50
2023-05-08T02:30:53.891Z,10.50
2023-05-08T02:33:25.453Z,10.50
2023-05-08T02:35:56.394Z,10.50
2023-05-08T02:38:26.870Z,10.50
2023-05-08T02:40:59.295Z,10.50
2023-05-08T02:43:27.887Z,10.40
2023-05-08T02:46:11.191Z,10.40
2023-05-08T02:48:53.351Z,10.40
2023-05-08T02:51:28.168Z,10.40
2023-05-08T02:54:06.291Z,10.40
2023-05-08T02:56:39.383Z,10.30
2023-05-08T02:59:16.801Z,10.30
2023-05-08T03:01:51.887Z,10.30
2023-05-08T03:04:28.166Z,10.20
2023-05-08T03:06:59.094Z,10.20
2023-05-08T03:09:41.171Z,10.10
2023-05-08T03:12:16.052Z,10.10
2023-05-08T03:14:51.071Z,10.00
2023-05-08T03:17:22.244Z,10.00
2023-05-08T03:19:58.177Z,9.90
2023-05-08T03:22:28.681Z,9.90
2023-05-08T03:24:59.538Z,9.80
2023-05-08T03:27:30.606Z,9.80
2023-05-08T03:30:00.969Z,9.70
2023-05-08T03:32:33.154Z,9.70
2023-05-08T03:35:03.844Z,9.70
2023-05-08T03:37:32.420Z,9.70
2023-05-08T03:40:01.291Z,9.60
2023-05-08T03:42:32.285Z,9.60
2023-05-08T03:45:04.267Z,9.60
2023-05-08T03:47:33.353Z,9.60
2023-05-08T03:50:04.715Z,9.60
2023-05-08T03:52:34.523Z,9.60
2023-05-08T03:55:03.719Z,9.70
2023-05-08T03:57:37.390Z,9.70
2023-05-08T04:00:14.684Z,9.70
2023-05-08T04:02:53.603Z,9.70
2023-05-08T04:05:33.054Z,9.70
2023-05-08T04:08:10.287Z,9.80
2023-05-08T04:10:44.441Z,9.80
2023-05-08T04:13:17.239Z,9.80
2023-05-08T04:15:52.634Z,9.90
2023-05-08T04:18:26.866Z,9.90
2023-05-08T04:20:57.787Z,9.90
2023-05-08T04:23:29.969Z,10.00
2023-05-08T04:26:01.339Z,10.00
2023-05-08T04:28:31.577Z,10.00
2023-05-08T04:31:00.927Z,10.10
2023-05-08T04:33:30.524Z,10.10
2023-05-08T04:36:03.629Z,10.10
2023-05-08T04:38:37.196Z,10.20
2023-05-08T04:41:06.410Z,10.30
2023-05-08T04:43:35.374Z,10.30
2023-05-08T04:46:06.891Z,10.40
2023-05-08T04:48:35.578Z,10.40
2023-05-08T04:51:05.526Z,10.40
2023-05-08T04:53:34.374Z,10.50
2023-05-08T04:56:03.062Z,10.50
2023-05-08T04:58:31.890Z,10.60
2023-05-08T05:01:03.642Z,10.60
2023-05-08T05:03:33.296Z,10.70
2023-05-08T05:06:02.528Z,10.70
2023-05-08T05:08:32.289Z,10.80
2023-05-08T05:11:00.822Z,10.80
2023-05-08T05:13:30.228Z,10.90
2023-05-08T05:16:01.095Z,10.90
2023-05-08T05:18:30.403Z,11.00
2023-05-08T05:21:00.205Z,11.00
2023-05-08T05:23:32.476Z,11.00
2023-05-08T05:26:01.841Z,11.10
2023-05-08T05:28:31.766Z,11.10
2023-05-08T05:31:01.379Z,11.20
2023-05-08T05:33:30.126Z,11.30
2023-05-08T05:35:59.315Z,11.40
2023-05-08T05:38:28.314Z,11.50
2023-05-08T05:40:58.677Z,11.60
2023-05-08T05:43:27.141Z,11.70
2023-05-08T05:45:56.418Z,11.90
2023-05-08T05:48:25.817Z,12.10
2023-05-08T05:50:54.178Z,12.60
2023-05-08T05:53:22.728Z,13.20
2023-05-08T05:55:51.300Z,13.80
2023-05-08T05:58:21.320Z,14.20
2023-05-08T06:00:50.693Z,14.50
2023-05-08T06:03:19.407Z,14.80
2023-05-08T06:05:48.541Z,15.20
2023-05-08T06:08:18.006Z,15.60
2023-05-08T06:10:46.497Z,16.10
2023-05-08T06:13:14.967Z,16.40
2023-05-08T06:15:44.945Z,16.80
2023-05-08T06:18:13.470Z,17.00
2023-05-08T06:20:41.830Z,17.20
2023-05-08T06:23:10.476Z,17.30
2023-05-08T06:25:38.935Z,17.30
2023-05-08T06:28:08.362Z,17.40
2023-05-08T06:30:36.796Z,17.40
2023-05-08T06:33:06.548Z,17.50
2023-05-08T06:35:35.278Z,17.50
2023-05-08T06:38:03.691Z,17.50
2023-05-08T06:40:32.133Z,17.60
2023-05-08T06:43:00.608Z,17.80
2023-05-08T06:45:29.072Z,18.10
2023-05-08T06:47:57.584Z,18.60
2023-05-08T06:50:27.455Z,19.10
2023-05-08T06:52:55.945Z,19.40
2023-05-08T06:55:24.484Z,19.60
2023-05-08T06:57:52.922Z,19.80
2023-05-08T07:00:21.707Z,19.90
2023-05-08T07:02:50.137Z,19.80
2023-05-08T07:05:20.141Z,19.80
2023-05-08T07:07:50.146Z,19.70
2023-05-08T07:10:21.163Z,19.60
2023-05-08T07:12:49.817Z,19.50
2023-05-08T07:17:52.992Z,19.40
2023-05-08T07:20:21.896Z,19.70
2023-05-08T07:22:52.062Z,20.00
2023-05-08T07:25:20.754Z,20.20
2023-05-08T07:27:49.118Z,20.50
2023-05-08T07:30:18.294Z,20.80
2023-05-08T07:32:46.934Z,21.10
2023-05-08T07:35:16.068Z,21.40
2023-05-08T07:37:44.896Z,21.70
2023-05-08T07:40:14.723Z,22.00
2023-05-08T07:42:44.191Z,22.30
2023-05-08T07:45:14.509Z,22.40
2023-05-08T07:47:51.389Z,22.60
2023-05-08T07:50:20.310Z,22.70
2023-05-08T07:52:50.297Z,22.60
2023-05-08T07:55:21.626Z,22.50
2023-05-08T07:57:50.078Z,22.50
2023-05-08T08:00:19.042Z,22.40
2023-05-08T08:02:47.745Z,22.50
2023-05-08T08:05:16.692Z,22.50
2023-05-08T08:07:45.355Z,22.40
2023-05-08T08:10:13.859Z,22.40
2023-05-08T08:12:43.607Z,22.30
2023-05-08T08:15:12.781Z,22.20
2023-05-08T08:17:41.417Z,22.30
2023-05-08T08:20:10.819Z,22.40
2023-05-08T08:22:39.541Z,22.60
2023-05-08T08:25:08.600Z,22.80
2023-05-08T08:27:37.185Z,23.10
2023-05-08T08:30:16.832Z,23.50
2023-05-08T08:32:46.756Z,24.10
2023-05-08T08:35:15.820Z,24.80
2023-05-08T08:37:45.398Z,25.40
2023-05-08T08:40:14.196Z,25.90
2023-05-08T08:42:42.674Z,26.30
2023-05-08T08:45:13.147Z,26.80
2023-05-08T08:47:43.961Z,27.30
2023-05-08T08:50:15.356Z,27.90
2023-05-08T08:52:54.637Z,28.40
2023-05-08T08:55:24.494Z,28.80
2023-05-08T08:58:01.363Z,28.90
2023-05-08T09:00:33.061Z,29.10
2023-05-08T09:03:02.028Z,29.40
2023-05-08T09:05:31.671Z,29.40
2023-05-08T09:08:00.563Z,29.30
2023-05-08T09:10:29.224Z,29.30
2023-05-08T09:12:57.789Z,29.50
2023-05-08T09:15:26.269Z,29.60
2023-05-08T09:17:56.225Z,29.90
2023-05-08T09:20:25.750Z,30.30
2023-05-08T09:22:55.392Z,30.70
2023-05-08T09:25:25.060Z,30.80
2023-05-08T09:27:53.485Z,30.70
2023-05-08T09:30:21.928Z,30.50
2023-05-08T09:32:50.396Z,30.50
2023-05-08T09:35:20.154Z,30.60
2023-05-08T09:37:48.592Z,30.80
2023-05-08T09:40:19.019Z,31.00
2023-05-08T09:42:47.754Z,31.30
2023-05-08T09:45:29.420Z,31.40
2023-05-08T09:47:58.421Z,31.50
2023-05-08T09:50:28.343Z,31.40
2023-05-08T09:52:56.883Z,31.20
2023-05-08T09:55:25.554Z,30.80
2023-05-08T09:57:56.662Z,30.30
2023-05-08T10:00:26.449Z,29.70
2023-05-08T10:03:00.427Z,29.10
2023-05-08T10:05:32.515Z,28.70
2023-05-08T10:08:19.632Z,28.40
2023-05-08T10:10:48.438Z,28.20
2023-05-08T10:13:16.896Z,28.10
2023-05-08T10:15:46.205Z,28.10
2023-05-08T10:18:17.800Z,28.20
2023-05-08T10:20:49.970Z,28.40
2023-05-08T10:23:19.290Z,28.70
2023-05-08T10:25:49.919Z,29.00
2023-05-08T10:28:25.291Z,29.30
2023-05-08T10:30:57.195Z,29.50
2023-05-08T10:33:31.350Z,29.70
2023-05-08T10:36:01.867Z,29.80
2023-05-08T10:38:32.327Z,29.90
2023-05-08T10:41:02.829Z,30.00
2023-05-08T10:43:32.507Z,30.20
2023-05-08T10:46:08.529Z,30.40
2023-05-08T10:48:46.584Z,30.60
2023-05-08T10:51:23.142Z,30.70
2023-05-08T10:53:56.593Z,30.70
2023-05-08T10:56:28.315Z,30.70
2023-05-08T10:59:01.122Z,30.60
2023-05-08T11:01:29.628Z,30.60
2023-05-08T11:03:58.281Z,30.70
2023-05-08T11:06:49.205Z,30.80
2023-05-08T11:09:23.366Z,30.90
2023-05-08T11:12:06.902Z,31.00
2023-05-08T11:14:38.207Z,31.00
2023-05-08T11:17:08.546Z,30.90
2023-05-08T11:19:38.154Z,30.90
2023-05-08T11:22:24.353Z,30.90
2023-05-08T11:24:59.099Z,31.10
2023-05-08T11:27:55.807Z,31.10
2023-05-08T11:30:27.149Z,31.20
2023-05-08T11:33:00.263Z,31.00
2023-05-08T11:35:46.968Z,30.70
2023-05-08T11:38:22.464Z,29.90
2023-05-08T11:40:56.078Z,29.40
2023-05-08T11:43:32.871Z,29.00
2023-05-08T11:46:04.216Z,28.90
2023-05-08T11:48:33.593Z,28.90
2023-05-08T11:51:02.709Z,29.00
2023-05-08T11:53:33.080Z,29.10
2023-05-08T11:56:02.007Z,29.20
2023-05-08T11:58:31.121Z,29.60
2023-05-08T12:00:59.718Z,30.10
2023-05-08T12:03:28.246Z,30.60
2023-05-08T12:05:59.059Z,30.90
2023-05-08T12:08:27.951Z,31.20
2023-05-08T12:10:59.559Z,31.30
2023-05-08T12:13:29.862Z,31.10
2023-05-08T12:16:00.488Z,30.80
2023-05-08T12:18:30.915Z,30.80
2023-05-08T12:21:01.344Z,30.90
2023-05-08T12:23:30.988Z,31.20
2023-05-08T12:26:02.628Z,31.40
2023-05-08T12:28:32.382Z,31.60
2023-05-08T12:31:01.235Z,31.80
2023-05-08T12:33:30.722Z,31.80
2023-05-08T12:35:59.370Z,31.90
2023-05-08T12:38:29.006Z,31.90
2023-05-08T12:40:57.717Z,31.70
2023-05-08T12:43:35.223Z,31.50
2023-05-08T12:46:04.740Z,31.10
2023-05-08T12:48:33.413Z,30.80
2023-05-08T12:51:06.989Z,30.70
2023-05-08T12:53:35.996Z,30.70
2023-05-08T12:56:06.189Z,30.60
2023-05-08T12:58:36.310Z,30.70
2023-05-08T13:01:13.140Z,30.90
2023-05-08T13:03:42.848Z,31.10
2023-05-08T13:06:22.457Z,31.40
2023-05-08T13:08:55.250Z,31.80
2023-05-08T13:11:31.508Z,31.90
2023-05-08T13:14:01.367Z,31.80
2023-05-08T13:16:29.940Z,31.70
2023-05-08T13:18:58.482Z,31.50
2023-05-08T13:21:28.096Z,31.30
2023-05-08T13:23:57.354Z,31.20
2023-05-08T13:26:26.367Z,31.30
2023-05-08T13:28:56.664Z,31.30
2023-05-08T13:31:26.717Z,31.00
2023-05-08T13:33:55.154Z,30.70
2023-05-08T13:36:23.605Z,30.50
2023-05-08T13:38:54.900Z,30.00
2023-05-08T13:41:23.389Z,29.60
2023-05-08T13:43:51.796Z,29.10
2023-05-08T13:46:20.431Z,28.80
2023-05-08T13:48:50.198Z,28.40
2023-05-08T13:51:18.745Z,28.00
2023-05-08T13:53:47.117Z,27.70
2023-05-08T13:56:15.858Z,27.30
2023-05-08T13:58:44.260Z,27.00
2023-05-08T14:01:25.667Z,26.80
2023-05-08T14:03:56.600Z,26.60
2023-05-08T14:06:25.103Z,26.50
2023-05-08T14:08:55.510Z,26.40
2023-05-08T14:11:25.587Z,26.30
2023-05-08T14:13:54.092Z,26.20
2023-05-08T14:16:22.641Z,26.10
2023-05-08T14:18:51.270Z,25.90
2023-05-08T14:21:20.965Z,25.80
2023-05-08T14:23:49.399Z,25.50
2023-05-08T14:26:17.825Z,25.30
2023-05-08T14:28:46.397Z,25.10
2023-05-08T14:31:14.834Z,25.00
2023-05-08T14:33:43.233Z,24.70
2023-05-08T14:36:11.818Z,24.50
2023-05-08T14:38:41.577Z,24.20
2023-05-08T14:41:10.136Z,23.90
2023-05-08T14:43:38.588Z,23.60
2023-05-08T14:46:07.047Z,23.40
2023-05-08T14:48:35.512Z,23.10
2023-05-08T14:51:04.038Z,22.90
2023-05-08T14:53:32.635Z,22.80
2023-05-08T14:56:03.947Z,22.60
2023-05-08T14:58:32.660Z,22.50
2023-05-08T15:01:01.053Z,22.40
2023-05-08T15:03:29.646Z,22.30
2023-05-08T15:05:58.193Z,22.20
2023-05-08T15:08:26.612Z,22.10
2023-05-08T15:10:55.007Z,22.10
2023-05-08T15:13:24.796Z,22.10
2023-05-08T15:15:53.543Z,22.20
2023-05-08T15:18:23.530Z,22.30
2023-05-08T15:20:51.924Z,22.40
2023-05-08T15:23:21.199Z,22.50
2023-05-08T15:25:49.700Z,22.60
2023-05-08T15:28:18.141Z,22.70
2023-05-08T15:30:48.816Z,22.80
2023-05-08T15:33:17.282Z,23.00
2023-05-08T15:35:45.742Z,23.00
2023-05-08T15:38:14.254Z,23.10
2023-05-08T15:40:42.786Z,23.20
2023-05-08T15:43:11.266Z,23.30
2023-05-08T15:45:39.815Z,23.30
2023-05-08T15:48:09.827Z,23.30
2023-05-08T15:50:38.254Z,23.30
2023-05-08T15:53:06.723Z,23.20
2023-05-08T15:55:35.073Z,23.10
2023-05-08T15:58:03.644Z,23.00
2023-05-08T16:00:44.097Z,23.00
2023-05-08T16:03:14.931Z,22.90
2023-05-08T16:05:43.605Z,22.70
2023-05-08T16:08:13.212Z,22.50
2023-05-08T16:10:42.472Z,22.30
2023-05-08T16:13:11.130Z,22.00
2023-05-08T16:15:39.695Z,21.70
2023-05-08T16:18:08.976Z,21.40
2023-05-08T16:20:41.802Z,21.10
2023-05-08T16:23:10.419Z,20.70
2023-05-08T16:25:38.891Z,20.40
2023-05-08T16:28:07.474Z,20.00
2023-05-08T16:30:36.161Z,19.70
2023-05-08T16:33:04.753Z,19.30
2023-05-08T16:35:33.536Z,19.00
2023-05-08T16:38:04.809Z,18.70
2023-05-08T16:40:33.448Z,18.40
2023-05-08T16:43:01.937Z,18.10
2023-05-08T16:45:30.372Z,17.90
2023-05-08T16:47:58.837Z,17.60
2023-05-08T16:50:27.296Z,17.40
2023-05-08T16:52:57.246Z,17.20
2023-05-08T16:55:27.153Z,17.10
2023-05-08T16:57:55.654Z,16.90
2023-05-08T17:00:24.644Z,16.70
2023-05-08T17:02:53.193Z,16.60
2023-05-08T17:05:21.671Z,16.40
2023-05-08T17:07:50.205Z,16.30
2023-05-08T17:10:18.586Z,16.10
2023-05-08T17:12:49.064Z,16.00
2023-05-08T17:15:17.605Z,15.80
2023-05-08T17:17:47.804Z,15.70
2023-05-08T17:20:16.877Z,15.50
2023-05-08T17:22:45.311Z,15.40
2023-05-08T17:25:13.708Z,15.30
2023-05-08T17:27:42.264Z,15.20
2023-05-08T17:30:15.144Z,15.10
2023-05-08T17:32:44.012Z,15.00
2023-05-08T17:35:12.384Z,14.80
2023-05-08T17:37:41.000Z,14.70
2023-05-08T17:40:11.007Z,14.60
2023-05-08T17:42:39.545Z,14.50
2023-05-08T17:45:08.866Z,14.40
2023-05-08T17:47:39.772Z,14.30
2023-05-08T17:50:09.488Z,14.20
2023-05-08T17:52:37.895Z,14.10
2023-05-08T17:55:06.712Z,14.00
2023-05-08T17:57:35.143Z,13.90
2023-05-08T18:00:03.767Z,13.80
2023-05-08T18:02:38.331Z,13.70
2023-05-08T18:05:07.401Z,13.60
2023-05-08T18:07:35.812Z,13.50
2023-05-08T18:10:04.555Z,13.40
2023-05-08T18:12:35.651Z,13.30
2023-05-08T18:15:07.897Z,13.20
2023-05-08T18:17:36.445Z,13.10
2023-05-08T18:20:07.947Z,13.00
2023-05-08T18:22:36.634Z,12.90
2023-05-08T18:25:05.269Z,12.90
2023-05-08T18:27:34.533Z,12.80
2023-05-08T18:30:03.111Z,12.70
2023-05-08T18:32:31.557Z,12.70
2023-05-08T18:35:00.115Z,12.60
2023-05-08T18:37:30.305Z,12.50
2023-05-08T18:39:58.740Z,12.50
2023-05-08T18:42:27.183Z,12.40
2023-05-08T18:44:56.367Z,12.40
2023-05-08T18:47:24.822Z,12.30
2023-05-08T18:49:53.261Z,12.30
2023-05-08T18:52:21.674Z,12.20
2023-05-08T18:54:51.416Z,12.20
2023-05-08T18:57:19.927Z,12.20
2023-05-08T18:59:48.241Z,12.10
2023-05-08T19:02:16.707Z,12.10
2023-05-08T19:04:45.117Z,12.10
2023-05-08T19:07:13.500Z,12.00
2023-05-08T19:09:41.839Z,12.00
2023-05-08T19:12:11.614Z,11.90
2023-05-08T19:14:40.017Z,11.90
2023-05-08T19:17:08.527Z,11.90
2023-05-08T19:19:36.987Z,11.90
2023-05-08T19:22:05.354Z,11.80
2023-05-08T19:24:34.347Z,11.80
2023-05-08T19:27:02.914Z,11.80
2023-05-08T19:29:34.863Z,11.80
2023-05-08T19:32:04.222Z,11.80
2023-05-08T19:34:33.153Z,11.80
2023-05-08T19:37:01.614Z,11.70
2023-05-08T19:39:30.004Z,11.70
2023-05-08T19:41:59.376Z,11.70
2023-05-08T19:44:28.130Z,11.70
2023-05-08T19:46:57.802Z,11.70
2023-05-08T19:49:26.569Z,11.70
2023-05-08T19:51:54.954Z,11.70
2023-05-08T19:54:23.372Z,11.70
2023-05-08T19:56:51.849Z,11.70
2023-05-08T19:59:20.285Z,11.60
2023-05-08T20:01:50.355Z,11.60
2023-05-08T20:04:20.194Z,11.60
2023-05-08T20:06:48.615Z,11.60
2023-05-08T20:09:17.262Z,11.60
2023-05-08T20:11:46.464Z,11.60
2023-05-08T20:14:15.181Z,11.60
2023-05-08T20:16:43.826Z,11.60
2023-05-08T20:19:12.424Z,11.60
2023-05-08T20:21:42.244Z,11.60
2023-05-08T20:24:10.850Z,11.60
2023-05-08T20:26:39.332Z,11.50
2023-05-08T20:29:07.796Z,11.50
2023-05-08T20:31:36.368Z,11.50
2023-05-08T20:34:04.809Z,11.50
2023-05-08T20:36:33.323Z,11.40
2023-05-08T20:39:03.153Z,11.40
2023-05-08T20:41:31.498Z,11.40
2023-05-08T20:43:59.855Z,11.40
2023-05-08T20:46:28.298Z,11.30
2023-05-08T20:48:58.841Z,11.30
2023-05-08T20:51:27.391Z,11.30
2023-05-08T20:53:55.827Z,11.20
2023-05-08T20:56:25.630Z,11.20
2023-05-08T20:58:54.051Z,11.10
2023-05-08T21:01:22.521Z,11.10
2023-05-08T21:03:50.903Z,11.10
2023-05-08T21:06:19.266Z,11.10
2023-05-08T21:08:47.674Z,11.00
2023-05-08T21:11:16.443Z,11.00
2023-05-08T21:13:46.044Z,10.90
2023-05-08T21:16:14.438Z,10.90
2023-05-08T21:18:42.980Z,10.80
2023-05-08T21:21:18.075Z,10.80
2023-05-08T21:23:46.574Z,10.80
2023-05-08T21:26:15.057Z,10.70
2023-05-08T21:28:43.434Z,10.60
2023-05-08T21:31:13.345Z,10.60
2023-05-08T21:33:41.868Z,10.50
2023-05-08T21:36:10.365Z,10.50
2023-05-08T21:38:38.673Z,10.40
2023-05-08T21:41:08.382Z,10.40
2023-05-08T21:43:37.349Z,10.30
2023-05-08T21:46:06.937Z,10.20
2023-05-08T21:48:37.640Z,10.20
2023-05-08T21:51:07.217Z,10.10
2023-05-08T21:53:35.789Z,10.10
2023-05-08T21:56:04.248Z,10.00
2023-05-08T21:58:32.705Z,10.00
2023-05-08T22:01:01.114Z,9.90
2023-05-08T22:03:30.731Z,9.90
2023-05-08T22:06:00.573Z,9.90
2023-05-08T22:08:29.047Z,9.80
2023-05-08T22:10:57.578Z,9.80
2023-05-08T22:13:26.134Z,9.80
2023-05-08T22:15:54.532Z,9.70
2023-05-08T22:18:23.123Z,9.80
2023-05-08T22:20:51.647Z,9.70
2023-05-08T22:23:21.437Z,9.70
2023-05-08T22:25:49.909Z,9.70
2023-05-08T22:28:18.314Z,9.60
2023-05-08T22:30:46.788Z,9.60
2023-05-08T22:33:15.186Z,9.60
2023-05-08T22:35:43.576Z,9.60
2023-05-08T22:38:12.006Z,9.50
2023-05-08T22:40:42.544Z,9.50
2023-05-08T22:43:10.953Z,9.50
2023-05-08T22:45:39.400Z,9.50
2023-05-08T22:48:08.538Z,9.40
2023-05-08T22:50:37.411Z,9.50
2023-05-08T22:53:08.368Z,9.40
2023-05-08T22:55:36.909Z,9.40
2023-05-08T22:58:06.681Z,9.40
2023-05-08T23:00:35.245Z,9.40
2023-05-08T23:03:03.777Z,9.30
2023-05-08T23:05:32.244Z,9.30
2023-05-08T23:08:00.674Z,9.20
2023-05-08T23:10:29.066Z,9.20
2023-05-08T23:12:57.521Z,9.20
2023-05-08T23:15:27.232Z,9.10
2023-05-08T23:17:55.913Z,9.10
2023-05-08T23:20:24.452Z,9.00
2023-05-08T23:22:52.869Z,9.00
2023-05-08T23:25:21.350Z,8.90
2023-05-08T23:27:49.750Z,8.90
2023-05-08T23:30:18.265Z,8.90
2023-05-08T23:32:48.129Z,8.80
2023-05-08T23:35:16.785Z,8.80
2023-05-08T23:37:45.234Z,8.80
2023-05-08T23:40:14.025Z,8.70
2023-05-08T23:42:42.294Z,8.60
2023-05-08T23:45:12.298Z,8.60
2023-05-08T23:47:41.612Z,8.60
2023-05-08T23:50:12.246Z,8.50
2023-05-08T23:52:40.636Z,8.50
2023-05-08T23:55:10.066Z,8.50
2023-05-08T23:57:38.746Z,8.50
